Time;durP1;ratioP1;P1;durP2;ratioP2;P2;SDS_P1;SDS_P2;PMS_P1;PMS_P2;Temp;Humidity;BMP_temperature;BMP_pressure;BME280_temperature;BME280_humidity;BME280_pressure;Samples;Min_cycle;Max_cycle;Signal;HPM_P1;HPM_P2
2021/07/28 00:00:38;;;;;;;14.38;6.30;;;17.20;99.90;;;;;;5032574;28;20128;-60
2021/07/28 00:03:04;;;;;;;16.10;7.38;;;17.20;99.90;;;;;;5032119;28;20048;-60
2021/07/28 00:05:30;;;;;;;18.08;7.47;;;17.20;99.90;;;;;;5032692;28;20395;-61
2021/07/28 00:07:56;;;;;;;16.15;6.75;;;17.20;99.90;;;;;;5028072;28;20064;-60
2021/07/28 00:10:22;;;;;;;20.08;6.65;;;17.20;99.90;;;;;;5029620;28;20053;-60
2021/07/28 00:12:47;;;;;;;15.20;6.97;;;17.20;99.90;;;;;;5018639;28;20434;-59
2021/07/28 00:15:13;;;;;;;11.93;6.07;;;17.20;99.90;;;;;;5031957;28;20139;-62
2021/07/28 00:17:47;;;;;;;12.43;5.80;;;17.10;99.90;;;;;;5032021;28;20033;-61
2021/07/28 00:20:21;;;;;;;17.08;6.35;;;17.10;99.90;;;;;;5031015;28;20065;-62
2021/07/28 00:25:35;;;;;;;12.48;6.30;;;17.00;99.90;;;;;;5032466;28;20091;-60
2021/07/28 00:28:00;;;;;;;13.90;6.32;;;16.90;99.90;;;;;;5031214;28;20463;-62
2021/07/28 00:30:26;;;;;;;12.57;5.85;;;16.90;99.90;;;;;;5031745;28;20036;-62
2021/07/28 00:32:52;;;;;;;10.80;6.10;;;16.80;99.90;;;;;;5024122;28;20392;-62
2021/07/28 00:35:18;;;;;;;12.70;6.30;;;16.80;99.90;;;;;;5024961;28;20033;-62
2021/07/28 00:37:45;;;;;;;13.30;5.82;;;16.70;99.90;;;;;;5030818;28;20029;-61
2021/07/28 00:40:12;;;;;;;16.10;6.20;;;16.60;99.90;;;;;;5032191;28;20112;-60
2021/07/28 00:42:38;;;;;;;14.77;6.40;;;16.60;99.90;;;;;;5031375;28;20124;-61
2021/07/28 00:45:04;;;;;;;15.07;6.30;;;16.60;99.90;;;;;;5031989;28;20155;-61
2021/07/28 00:47:30;;;;;;;14.95;5.82;;;16.60;99.90;;;;;;5029746;28;20453;-62
2021/07/28 00:49:55;;;;;;;10.85;5.03;;;16.60;99.90;;;;;;5031392;28;20061;-61
2021/07/28 00:52:21;;;;;;;14.55;5.82;;;16.50;99.90;;;;;;5030973;28;20034;-60
2021/07/28 00:54:48;;;;;;;14.02;5.63;;;16.50;99.90;;;;;;5031077;28;20413;-61
2021/07/28 00:57:14;;;;;;;16.88;6.07;;;16.50;99.90;;;;;;5031152;28;20029;-60
2021/07/28 00:59:40;;;;;;;18.27;6.28;;;16.60;99.90;;;;;;5029490;28;20021;-60
2021/07/28 01:02:06;;;;;;;13.18;5.75;;;16.70;99.90;;;;;;5030784;28;20041;-61
2021/07/28 01:04:32;;;;;;;14.50;5.75;;;16.70;99.90;;;;;;5031717;28;20033;-61
2021/07/28 01:06:59;;;;;;;11.55;6.20;;;16.70;99.90;;;;;;5022986;28;20577;-61
2021/07/28 01:09:28;;;;;;;13.55;6.05;;;16.80;99.90;;;;;;5026864;28;20025;-60
2021/07/28 01:11:56;;;;;;;18.92;6.38;;;16.70;99.90;;;;;;5026895;28;20037;-61
2021/07/28 01:14:22;;;;;;;17.05;6.15;;;16.80;99.90;;;;;;5027177;28;20079;-63
2021/07/28 01:16:48;;;;;;;16.50;6.35;;;16.90;99.90;;;;;;5031336;28;20033;-61
2021/07/28 01:19:18;;;;;;;18.02;6.45;;;16.90;99.90;;;;;;5031013;28;20108;-61
2021/07/28 01:21:44;;;;;;;16.80;6.22;;;16.90;99.90;;;;;;5031767;28;20268;-62
2021/07/28 01:24:12;;;;;;;21.77;7.10;;;16.90;99.90;;;;;;5028854;28;20030;-60
2021/07/28 01:26:38;;;;;;;17.98;6.78;;;17.00;99.90;;;;;;5032985;28;20051;-60
2021/07/28 01:29:05;;;;;;;15.32;6.13;;;17.00;99.90;;;;;;5035844;28;20550;-61
2021/07/28 01:31:41;;;;;;;17.52;6.43;;;17.10;99.90;;;;;;5031085;28;20033;-61
2021/07/28 01:34:08;;;;;;;19.20;6.85;;;17.20;99.90;;;;;;5030511;28;20026;-61
2021/07/28 01:36:35;;;;;;;20.83;6.93;;;17.10;99.90;;;;;;5030976;28;20391;-60
2021/07/28 01:39:03;;;;;;;16.95;6.47;;;17.20;99.90;;;;;;5026997;28;20391;-60
2021/07/28 01:41:29;;;;;;;21.95;7.70;;;17.20;99.90;;;;;;5030021;28;20129;-61
2021/07/28 01:43:55;;;;;;;19.38;6.97;;;17.20;99.90;;;;;;5029508;28;20025;-60
2021/07/28 01:46:20;;;;;;;19.25;6.85;;;17.30;99.90;;;;;;5031017;28;20039;-61
2021/07/28 01:48:46;;;;;;;18.52;6.88;;;17.30;99.90;;;;;;5029281;28;20096;-60
2021/07/28 01:51:12;;;;;;;20.50;6.45;;;17.30;99.90;;;;;;5029700;28;20096;-60
2021/07/28 01:53:37;;;;;;;17.27;6.82;;;17.30;99.90;;;;;;5030100;28;20093;-60
2021/07/28 01:56:03;;;;;;;17.67;6.93;;;17.30;99.90;;;;;;5031475;28;20045;-60
2021/07/28 01:58:30;;;;;;;19.42;6.72;;;17.30;99.90;;;;;;5023235;28;20053;-62
2021/07/28 02:00:56;;;;;;;23.90;7.15;;;17.30;99.90;;;;;;5030907;28;20480;-61
2021/07/28 02:03:22;;;;;;;22.20;7.45;;;17.30;99.90;;;;;;5029886;28;20036;-61
2021/07/28 02:05:49;;;;;;;17.88;6.95;;;17.40;99.90;;;;;;5030602;28;20038;-61
2021/07/28 02:08:16;;;;;;;15.95;7.28;;;17.40;99.90;;;;;;5028358;28;20075;-60
2021/07/28 02:10:46;;;;;;;23.77;7.93;;;17.40;99.90;;;;;;5019929;28;20034;-60
2021/07/28 02:13:13;;;;;;;24.08;7.55;;;17.40;99.90;;;;;;5030321;28;20108;-60
2021/07/28 02:15:39;;;;;;;17.90;7.53;;;17.40;99.90;;;;;;5029907;28;20030;-62
2021/07/28 02:18:05;;;;;;;21.30;7.50;;;17.40;99.90;;;;;;5019678;28;20427;-59
2021/07/28 02:20:32;;;;;;;21.95;7.40;;;17.40;99.90;;;;;;5025063;28;20034;-61
2021/07/28 02:22:59;;;;;;;19.17;7.78;;;17.50;99.90;;;;;;5029174;28;20044;-60
2021/07/28 02:25:24;;;;;;;20.55;7.18;;;17.40;99.90;;;;;;5030757;28;20044;-61
2021/07/28 02:27:50;;;;;;;18.15;7.85;;;17.50;99.90;;;;;;5029849;28;20049;-61
2021/07/28 02:30:17;;;;;;;18.80;7.32;;;17.50;99.90;;;;;;5029544;28;20037;-62
2021/07/28 02:32:43;;;;;;;22.25;8.02;;;17.40;99.90;;;;;;5029029;28;20490;-60
2021/07/28 02:35:12;;;;;;;22.92;7.68;;;17.50;99.90;;;;;;5030503;28;20091;-62
2021/07/28 02:37:41;;;;;;;19.27;6.78;;;17.40;99.90;;;;;;5030089;28;20025;-61
2021/07/28 02:40:08;;;;;;;17.85;6.70;;;17.50;99.90;;;;;;5030851;28;20029;-62
2021/07/28 02:42:33;;;;;;;18.42;6.72;;;17.40;99.90;;;;;;5029953;28;20553;-62
2021/07/28 02:44:59;;;;;;;18.42;6.40;;;17.40;99.90;;;;;;5029580;28;20030;-61
2021/07/28 02:47:25;;;;;;;19.05;6.50;;;17.40;99.90;;;;;;5019991;28;20400;-60
2021/07/28 02:49:50;;;;;;;20.20;6.90;;;17.50;99.90;;;;;;5017647;28;20036;-61
2021/07/28 02:52:16;;;;;;;21.33;7.18;;;17.50;99.90;;;;;;5029377;28;20040;-63
2021/07/28 02:54:42;;;;;;;18.48;6.45;;;17.60;99.90;;;;;;5029393;28;20064;-62
2021/07/28 02:57:07;;;;;;;26.77;7.35;;;17.60;99.90;;;;;;5032791;28;20030;-61
2021/07/28 02:59:33;;;;;;;18.85;6.57;;;17.60;99.90;;;;;;5033062;28;20040;-61
2021/07/28 03:01:59;;;;;;;18.63;6.32;;;17.70;99.90;;;;;;5034379;28;20041;-61
2021/07/28 03:04:24;;;;;;;17.30;5.75;;;17.60;99.90;;;;;;5033240;28;20104;-62
2021/07/28 03:06:50;;;;;;;23.10;6.40;;;17.70;99.90;;;;;;5033831;28;20053;-62
2021/07/28 03:09:16;;;;;;;14.15;6.20;;;17.60;99.90;;;;;;5033342;28;20036;-61
2021/07/28 03:11:42;;;;;;;18.35;6.65;;;17.70;99.90;;;;;;5033907;28;20037;-61
2021/07/28 03:14:07;;;;;;;19.73;6.80;;;17.70;99.90;;;;;;5032993;28;20466;-60
2021/07/28 03:16:33;;;;;;;15.65;6.70;;;17.70;99.90;;;;;;5033163;28;20099;-61
2021/07/28 03:18:59;;;;;;;16.35;6.80;;;17.60;99.90;;;;;;5032826;28;20049;-61
2021/07/28 03:21:25;;;;;;;18.27;7.00;;;17.60;99.90;;;;;;5033054;28;20498;-61
2021/07/28 03:23:51;;;;;;;18.98;6.57;;;17.60;99.90;;;;;;5032272;28;20498;-61
2021/07/28 03:26:17;;;;;;;12.23;6.15;;;17.60;99.90;;;;;;5029315;28;20026;-62
2021/07/28 03:28:43;;;;;;;15.77;6.60;;;17.60;99.90;;;;;;5032459;28;20091;-61
2021/07/28 03:31:08;;;;;;;20.02;6.38;;;17.60;99.90;;;;;;5033169;28;20037;-61
2021/07/28 03:33:34;;;;;;;16.52;6.53;;;17.60;99.90;;;;;;5031976;28;20481;-60
2021/07/28 03:36:00;;;;;;;15.88;6.93;;;17.70;99.90;;;;;;5033446;28;20388;-60
2021/07/28 03:38:25;;;;;;;22.70;6.90;;;17.60;99.90;;;;;;5032582;28;20075;-61
2021/07/28 03:40:51;;;;;;;15.40;6.50;;;17.70;99.90;;;;;;5033445;28;20041;-62
2021/07/28 03:43:17;;;;;;;15.27;7.32;;;17.70;99.90;;;;;;5032371;28;20091;-59
2021/07/28 03:45:43;;;;;;;25.15;7.22;;;17.60;99.90;;;;;;5033540;28;20495;-62
2021/07/28 03:48:09;;;;;;;17.95;6.80;;;17.70;99.90;;;;;;5030260;28;20091;-60
2021/07/28 03:50:34;;;;;;;17.05;7.63;;;17.70;99.90;;;;;;5033065;28;20048;-60
2021/07/28 03:53:01;;;;;;;19.48;7.43;;;17.70;99.90;;;;;;5032895;28;20108;-60
2021/07/28 03:55:28;;;;;;;19.08;7.32;;;17.70;99.90;;;;;;5032752;28;20052;-61
2021/07/28 03:57:53;;;;;;;16.83;7.45;;;17.70;99.90;;;;;;5027290;28;20395;-63
2021/07/28 04:00:20;;;;;;;20.10;7.72;;;17.70;99.90;;;;;;5032011;28;20052;-60
2021/07/28 04:02:46;;;;;;;16.23;7.18;;;17.70;99.90;;;;;;5032643;28;20080;-62
2021/07/28 04:05:12;;;;;;;20.77;7.70;;;17.70;99.90;;;;;;5032091;28;20479;-61
2021/07/28 04:07:38;;;;;;;13.27;6.93;;;17.70;99.90;;;;;;5031286;28;20025;-60
2021/07/28 04:10:04;;;;;;;15.55;7.57;;;17.70;99.90;;;;;;5032092;28;20021;-59
2021/07/28 04:12:30;;;;;;;17.23;7.88;;;17.80;99.90;;;;;;5032713;28;20037;-60
2021/07/28 04:14:55;;;;;;;16.23;8.15;;;17.80;99.90;;;;;;5032021;28;20071;-60
2021/07/28 04:17:21;;;;;;;16.40;8.70;;;17.70;99.90;;;;;;5032074;28;20057;-61
2021/07/28 04:19:49;;;;;;;17.20;8.38;;;17.70;99.90;;;;;;5031677;28;20021;-60
2021/07/28 04:22:18;;;;;;;20.35;8.75;;;17.70;99.90;;;;;;5032677;28;20487;-61
2021/07/28 04:24:45;;;;;;;17.67;9.05;;;17.70;99.90;;;;;;5031900;28;20040;-61
2021/07/28 04:27:11;;;;;;;24.67;9.80;;;17.70;99.90;;;;;;5032406;28;20076;-60
2021/07/28 04:29:36;;;;;;;17.75;9.77;;;17.70;99.90;;;;;;5033150;28;20857;-60
2021/07/28 04:32:02;;;;;;;20.20;11.23;;;17.80;99.90;;;;;;5034750;28;20036;-61
2021/07/28 04:34:28;;;;;;;21.58;11.25;;;17.80;99.90;;;;;;5030516;28;20056;-61
2021/07/28 04:36:54;;;;;;;24.05;11.23;;;17.80;99.90;;;;;;5032221;28;20030;-60
2021/07/28 04:39:19;;;;;;;18.95;11.98;;;17.70;99.90;;;;;;5031386;28;20169;-61
2021/07/28 04:41:45;;;;;;;19.88;12.43;;;17.60;99.90;;;;;;5032370;28;20029;-60
2021/07/28 04:44:11;;;;;;;21.08;12.00;;;17.60;99.90;;;;;;5031412;28;20391;-61
2021/07/28 04:46:37;;;;;;;21.80;12.05;;;17.50;99.90;;;;;;5031205;28;20064;-63
2021/07/28 04:49:03;;;;;;;19.67;12.00;;;17.50;99.90;;;;;;5027868;28;20037;-62
2021/07/28 04:51:28;;;;;;;19.70;11.75;;;17.50;99.90;;;;;;5031924;28;20073;-61
2021/07/28 04:53:54;;;;;;;18.20;10.80;;;17.40;99.90;;;;;;5030585;28;20068;-60
2021/07/28 04:56:20;;;;;;;18.80;11.27;;;17.30;99.90;;;;;;5031357;28;20037;-61
2021/07/28 04:58:46;;;;;;;19.60;11.48;;;17.30;99.90;;;;;;5023115;28;20535;-61
2021/07/28 05:01:12;;;;;;;16.02;11.18;;;17.30;99.90;;;;;;5025586;28;20037;-62
2021/07/28 05:03:38;;;;;;;19.98;12.20;;;17.30;99.90;;;;;;5031000;28;20033;-60
2021/07/28 05:06:04;;;;;;;18.80;11.77;;;17.30;99.90;;;;;;5030572;28;20061;-61
2021/07/28 05:08:29;;;;;;;17.42;12.10;;;17.30;99.90;;;;;;5028677;28;20152;-62
2021/07/28 05:10:55;;;;;;;21.70;11.98;;;17.30;99.90;;;;;;5030659;28;20176;-61
2021/07/28 05:13:21;;;;;;;17.33;11.50;;;17.30;99.90;;;;;;5031357;28;20464;-61
2021/07/28 05:15:52;;;;;;;23.52;12.48;;;17.30;99.90;;;;;;5031064;28;20472;-60
2021/07/28 05:18:17;;;;;;;17.20;10.52;;;17.30;99.90;;;;;;5030696;28;20061;-61
2021/07/28 05:20:43;;;;;;;19.27;9.95;;;17.30;99.90;;;;;;5030454;28;20443;-61
2021/07/28 05:23:09;;;;;;;21.35;9.80;;;17.20;99.90;;;;;;5031766;28;20026;-61
2021/07/28 05:25:35;;;;;;;15.50;10.05;;;17.10;99.90;;;;;;5029324;28;20483;-62
2021/07/28 05:28:00;;;;;;;21.17;10.63;;;17.10;99.90;;;;;;5030112;28;20132;-60
2021/07/28 05:30:27;;;;;;;17.05;11.88;;;17.10;99.90;;;;;;5030496;28;20519;-61
2021/07/28 05:32:53;;;;;;;18.90;10.55;;;17.20;99.90;;;;;;5029159;28;20033;-60
2021/07/28 05:35:19;;;;;;;16.77;11.02;;;17.20;99.90;;;;;;5029693;28;20037;-61
2021/07/28 05:37:45;;;;;;;16.58;9.40;;;17.30;99.90;;;;;;5031071;28;20471;-60
2021/07/28 05:40:11;;;;;;;19.35;11.23;;;17.30;99.90;;;;;;5030400;28;20104;-62
2021/07/28 05:42:37;;;;;;;17.48;9.77;;;17.30;99.90;;;;;;5030477;28;20471;-62
2021/07/28 05:45:03;;;;;;;16.13;10.45;;;17.30;99.90;;;;;;5030408;28;20031;-60
2021/07/28 05:47:29;;;;;;;20.30;10.98;;;17.30;99.90;;;;;;5024415;28;20123;-61
2021/07/28 05:49:55;;;;;;;21.15;11.32;;;17.30;99.90;;;;;;5028846;28;20065;-61
2021/07/28 05:52:20;;;;;;;21.85;10.98;;;17.30;99.90;;;;;;5030823;28;20033;-63
2021/07/28 05:54:46;;;;;;;18.13;10.88;;;17.20;99.90;;;;;;5030200;28;20068;-59
2021/07/28 05:57:13;;;;;;;21.38;10.43;;;17.30;99.90;;;;;;5028710;28;20032;-61
2021/07/28 05:59:38;;;;;;;17.88;10.20;;;17.30;99.90;;;;;;5024629;28;20530;-61
2021/07/28 06:02:05;;;;;;;17.17;10.00;;;17.30;99.90;;;;;;5030580;28;20048;-61
2021/07/28 06:04:30;;;;;;;17.70;10.57;;;17.30;99.90;;;;;;5030133;28;20444;-59
2021/07/28 06:06:56;;;;;;;15.10;10.07;;;17.30;99.90;;;;;;5026844;28;20096;-60
2021/07/28 06:09:21;;;;;;;18.15;11.27;;;17.30;99.90;;;;;;5024755;28;20030;-60
2021/07/28 06:11:47;;;;;;;18.52;10.88;;;17.40;99.90;;;;;;5030197;28;20029;-61
2021/07/28 06:14:13;;;;;;;21.52;10.20;;;17.40;99.90;;;;;;5029970;28;20061;-61
2021/07/28 06:16:39;;;;;;;22.67;10.57;;;17.40;99.90;;;;;;5029909;28;20034;-59
2021/07/28 06:19:04;;;;;;;18.48;10.30;;;17.50;99.90;;;;;;5027978;28;20036;-58
2021/07/28 06:21:30;;;;;;;19.92;10.57;;;17.50;99.90;;;;;;5029531;28;20132;-61
2021/07/28 06:23:59;;;;;;;20.35;11.30;;;17.40;99.90;;;;;;5030551;28;20032;-61
2021/07/28 06:26:26;;;;;;;19.45;9.93;;;17.50;99.90;;;;;;5026700;28;20035;-60
2021/07/28 06:28:52;;;;;;;20.30;11.05;;;17.50;99.90;;;;;;5029856;28;20072;-63
2021/07/28 06:31:17;;;;;;;20.17;11.45;;;17.50;99.90;;;;;;5030934;28;20060;-62
2021/07/28 06:33:43;;;;;;;20.52;11.88;;;17.50;99.90;;;;;;5031389;28;20116;-61
2021/07/28 06:36:09;;;;;;;19.55;11.00;;;17.60;99.90;;;;;;5033615;28;20076;-61
2021/07/28 06:38:34;;;;;;;21.90;11.13;;;17.60;99.90;;;;;;5034742;28;20041;-63
2021/07/28 06:41:00;;;;;;;20.10;11.43;;;17.60;99.90;;;;;;5031002;28;20100;-61
2021/07/28 06:43:26;;;;;;;20.67;10.98;;;17.60;99.90;;;;;;5028469;28;20072;-62
2021/07/28 06:46:01;;;;;;;20.70;12.88;;;17.60;99.90;;;;;;5033095;28;20037;-61
2021/07/28 06:48:27;;;;;;;19.13;10.75;;;17.60;99.90;;;;;;5020751;28;20083;-62
2021/07/28 06:50:53;;;;;;;17.02;10.18;;;17.70;99.90;;;;;;5033555;28;20044;-62
2021/07/28 06:53:19;;;;;;;18.58;10.48;;;17.60;99.90;;;;;;5034500;28;20088;-62
2021/07/28 06:55:45;;;;;;;17.48;10.20;;;17.60;99.90;;;;;;5025642;28;20050;-61
2021/07/28 06:58:11;;;;;;;21.02;10.48;;;17.70;99.90;;;;;;5030297;28;20112;-64
2021/07/28 07:00:37;;;;;;;19.67;9.90;;;17.80;99.90;;;;;;5028183;28;20044;-63
2021/07/28 07:03:02;;;;;;;19.98;9.98;;;17.80;99.90;;;;;;5034412;28;20454;-62
2021/07/28 07:05:28;;;;;;;22.65;9.38;;;17.80;99.90;;;;;;5028776;28;20038;-62
2021/07/28 07:07:54;;;;;;;16.73;8.55;;;17.80;99.90;;;;;;5033389;28;20025;-60
2021/07/28 07:10:21;;;;;;;18.17;9.35;;;17.90;99.90;;;;;;5032778;28;20079;-59
2021/07/28 07:12:47;;;;;;;15.02;8.48;;;18.00;99.90;;;;;;5034192;28;20038;-59
2021/07/28 07:15:13;;;;;;;15.35;7.95;;;18.10;99.90;;;;;;5029662;28;20087;-61
2021/07/28 07:17:39;;;;;;;13.60;7.70;;;18.10;99.90;;;;;;5029664;28;20034;-61
2021/07/28 07:20:05;;;;;;;26.23;8.15;;;18.30;99.90;;;;;;5032528;28;20403;-60
2021/07/28 07:22:31;;;;;;;19.30;7.50;;;18.30;99.90;;;;;;5032862;28;20053;-62
2021/07/28 07:24:57;;;;;;;18.27;7.82;;;18.30;99.90;;;;;;5032425;28;20537;-60
2021/07/28 07:27:23;;;;;;;14.50;7.50;;;18.40;99.90;;;;;;5023287;28;20484;-61
2021/07/28 07:29:49;;;;;;;16.25;7.22;;;18.50;99.90;;;;;;5028781;28;20040;-59
2021/07/28 07:32:29;;;;;;;13.27;6.57;;;18.60;99.90;;;;;;5035272;28;20167;-60
2021/07/28 07:34:56;;;;;;;12.60;6.30;;;18.60;99.90;;;;;;5032621;28;20514;-61
2021/07/28 07:37:22;;;;;;;14.60;6.35;;;18.50;99.90;;;;;;5033512;28;20044;-59
2021/07/28 07:39:47;;;;;;;17.08;6.63;;;18.50;99.90;;;;;;5031409;28;20037;-61
2021/07/28 07:42:13;;;;;;;16.45;6.22;;;18.40;99.90;;;;;;5030199;28;20095;-61
2021/07/28 07:44:39;;;;;;;15.15;6.63;;;18.50;99.90;;;;;;5031967;28;20075;-61
2021/07/28 07:47:04;;;;;;;27.70;7.00;;;18.50;99.90;;;;;;5031301;28;20033;-61
2021/07/28 07:49:30;;;;;;;26.95;6.70;;;18.60;99.90;;;;;;5030644;28;20383;-60
2021/07/28 07:51:56;;;;;;;20.90;6.55;;;18.80;99.90;;;;;;5023229;28;20093;-61
2021/07/28 07:54:21;;;;;;;23.05;5.80;;;19.00;99.90;;;;;;5026838;28;20377;-59
2021/07/28 07:56:47;;;;;;;15.35;5.50;;;19.10;99.90;;;;;;5025143;28;20850;-59
2021/07/28 07:59:12;;;;;;;15.90;5.28;;;19.00;99.90;;;;;;5025803;28;20025;-60
2021/07/28 08:01:39;;;;;;;17.23;5.85;;;19.40;99.90;;;;;;5031727;28;20109;-60
2021/07/28 08:04:04;;;;;;;21.23;5.43;;;19.50;99.90;;;;;;5033376;28;20100;-60
2021/07/28 08:06:30;;;;;;;18.13;4.65;;;19.50;99.90;;;;;;5022702;28;20037;-61
2021/07/28 08:08:56;;;;;;;16.73;4.25;;;19.60;99.90;;;;;;5032016;28;20039;-60
2021/07/28 08:11:21;;;;;;;33.00;4.85;;;19.60;99.90;;;;;;5031658;28;20091;-59
2021/07/28 08:13:47;;;;;;;9.15;3.70;;;20.00;99.90;;;;;;5032630;28;20044;-60
2021/07/28 08:16:18;;;;;;;18.38;4.88;;;20.00;99.90;;;;;;5031381;28;20113;-60
2021/07/28 08:18:46;;;;;;;15.10;4.05;;;20.10;99.90;;;;;;5032602;28;20037;-61
2021/07/28 08:21:12;;;;;;;9.88;3.60;;;20.00;99.90;;;;;;5018782;28;20056;-60
2021/07/28 08:23:39;;;;;;;19.13;3.95;;;19.90;99.90;;;;;;5032297;28;20045;-60
2021/07/28 08:26:05;;;;;;;11.77;3.63;;;19.80;99.90;;;;;;5028195;28;20546;-60
2021/07/28 08:28:31;;;;;;;9.15;3.63;;;19.80;99.90;;;;;;5031861;28;20061;-61
2021/07/28 08:30:57;;;;;;;19.08;4.00;;;19.70;99.90;;;;;;5030625;28;20030;-62
2021/07/28 08:33:25;;;;;;;11.80;3.80;;;19.70;99.90;;;;;;5031477;28;20029;-60
2021/07/28 08:35:53;;;;;;;15.13;3.75;;;19.70;99.90;;;;;;5031504;28;20033;-60
2021/07/28 08:38:21;;;;;;;7.55;4.13;;;19.70;99.90;;;;;;5031299;28;20494;-59
2021/07/28 08:40:55;;;;;;;10.00;3.75;;;19.90;99.90;;;;;;5031616;28;20022;-60
2021/07/28 08:43:25;;;;;;;19.48;4.97;;;20.00;99.90;;;;;;5030336;28;20036;-60
2021/07/28 08:45:53;;;;;;;13.70;4.00;;;20.40;99.90;;;;;;5023581;28;20037;-62
2021/07/28 08:48:22;;;;;;;7.43;3.10;;;20.50;99.90;;;;;;5031678;28;20495;-60
2021/07/28 08:50:49;;;;;;;7.32;2.88;;;20.80;99.90;;;;;;5030089;28;20049;-59
2021/07/28 08:53:14;;;;;;;8.52;3.00;;;20.80;99.90;;;;;;5030309;28;20416;-59
2021/07/28 08:55:40;;;;;;;9.77;2.58;;;20.70;99.90;;;;;;5031273;28;20063;-60
2021/07/28 08:58:14;;;;;;;10.18;2.33;;;20.70;99.90;;;;;;5032036;28;20029;-60
2021/07/28 09:00:42;;;;;;;8.17;2.67;;;20.80;99.90;;;;;;5018549;28;20543;-59
2021/07/28 09:03:07;;;;;;;10.05;2.50;;;21.20;99.90;;;;;;5031482;28;20708;-61
2021/07/28 09:05:44;;;;;;;6.47;2.40;;;21.40;99.90;;;;;;5029995;28;20027;-61
2021/07/28 09:08:34;;;;;;;9.93;2.63;;;21.50;99.90;;;;;;5023982;28;20112;-60
2021/07/28 09:11:06;;;;;;;3.70;2.33;;;21.50;99.90;;;;;;5022656;28;20033;-62
2021/07/28 09:13:33;;;;;;;3.53;2.30;;;21.30;99.90;;;;;;5031373;28;20033;-60
2021/07/28 09:16:04;;;;;;;7.03;2.58;;;21.10;99.90;;;;;;5030409;28;20037;-61
2021/07/28 09:18:37;;;;;;;18.25;3.40;;;20.80;99.90;;;;;;5017898;28;20385;-61
2021/07/28 09:21:27;;;;;;;4.65;3.10;;;20.60;99.90;;;;;;5030339;28;20033;-61
2021/07/28 09:23:55;;;;;;;6.88;3.10;;;20.30;99.90;;;;;;5030593;28;20096;-61
2021/07/28 09:26:34;;;;;;;5.22;2.90;;;20.20;99.90;;;;;;5035673;28;20494;-62
2021/07/28 09:29:06;;;;;;;9.27;2.90;;;20.30;99.90;;;;;;5040056;28;20029;-60
2021/07/28 09:31:39;;;;;;;12.25;3.28;;;20.30;99.90;;;;;;5027029;28;20510;-64
2021/07/28 09:36:49;;;;;;;8.07;3.05;;;20.30;99.90;;;;;;5028412;28;20514;-62
2021/07/28 09:39:28;;;;;;;7.95;2.60;;;20.30;99.90;;;;;;5035225;28;20120;-62
2021/07/28 09:41:56;;;;;;;15.30;3.10;;;20.50;99.90;;;;;;5033280;28;20036;-60
2021/07/28 09:44:27;;;;;;;12.85;3.28;;;20.40;99.90;;;;;;5042628;28;20472;-62
2021/07/28 09:47:09;;;;;;;8.13;2.70;;;20.40;99.90;;;;;;5036002;28;20029;-63
2021/07/28 09:49:37;;;;;;;5.75;2.85;;;20.70;99.90;;;;;;5041728;28;20041;-60
2021/07/28 09:52:17;;;;;;;6.72;2.90;;;20.70;99.90;;;;;;5033621;28;20112;-61
2021/07/28 09:54:44;;;;;;;15.23;3.13;;;20.70;99.90;;;;;;5029926;28;20071;-61
2021/07/28 09:57:20;;;;;;;8.73;2.35;;;20.50;99.90;;;;;;5026653;28;20103;-60
2021/07/28 10:00:03;;;;;;;12.68;2.90;;;20.50;99.90;;;;;;5033012;28;20033;-62
2021/07/28 10:02:29;;;;;;;8.68;2.35;;;20.60;99.90;;;;;;5028803;28;20124;-61
2021/07/28 10:04:55;;;;;;;9.77;2.70;;;20.40;99.90;;;;;;5029189;28;20083;-61
2021/07/28 10:07:22;;;;;;;10.60;2.53;;;20.40;99.90;;;;;;5025701;28;20025;-61
2021/07/28 10:09:51;;;;;;;9.85;2.70;;;20.50;99.90;;;;;;5031029;28;20083;-62
2021/07/28 10:12:18;;;;;;;7.97;2.55;;;20.40;99.90;;;;;;5027002;28;20057;-61
2021/07/28 10:14:44;;;;;;;6.07;2.30;;;20.30;99.90;;;;;;5041089;28;20116;-62
2021/07/28 10:17:13;;;;;;;6.45;2.30;;;20.30;99.90;;;;;;5030220;28;20029;-62
2021/07/28 10:19:39;;;;;;;5.53;2.53;;;20.30;99.90;;;;;;5032351;28;20548;-63
2021/07/28 10:22:06;;;;;;;15.27;3.85;;;20.40;99.90;;;;;;5042134;28;20034;-63
2021/07/28 10:24:32;;;;;;;11.70;2.40;;;20.40;99.90;;;;;;5040311;28;20075;-60
2021/07/28 10:27:01;;;;;;;4.82;2.00;;;20.30;99.90;;;;;;5023365;28;20045;-60
2021/07/28 10:29:27;;;;;;;7.15;1.90;;;20.30;99.90;;;;;;5029063;28;20041;-60
2021/07/28 10:31:54;;;;;;;7.68;2.60;;;20.30;99.90;;;;;;5026370;28;20064;-60
2021/07/28 10:34:27;;;;;;;7.72;2.75;;;20.20;99.90;;;;;;5034501;28;20437;-59
2021/07/28 10:36:54;;;;;;;6.90;2.00;;;20.30;99.90;;;;;;5031861;28;20044;-61
2021/07/28 10:39:36;;;;;;;8.35;2.53;;;20.40;99.90;;;;;;5031418;28;20028;-60
2021/07/28 10:42:30;;;;;;;4.45;2.35;;;20.60;99.90;;;;;;5020918;28;20113;-61
2021/07/28 10:44:56;;;;;;;8.60;1.83;;;20.60;99.90;;;;;;5028386;28;20029;-60
2021/07/28 10:47:52;;;;;;;9.88;2.45;;;20.80;99.90;;;;;;5029863;28;20040;-61
2021/07/28 10:50:30;;;;;;;5.05;2.40;;;20.90;99.90;;;;;;5022862;28;20040;-60
2021/07/28 10:53:00;;;;;;;5.30;1.98;;;21.00;99.90;;;;;;5024878;28;20375;-61
2021/07/28 10:55:31;;;;;;;3.95;2.10;;;21.00;99.90;;;;;;5040295;28;20028;-61
2021/07/28 10:58:07;;;;;;;4.72;2.28;;;21.10;99.90;;;;;;5029383;28;20380;-60
2021/07/28 11:00:35;;;;;;;8.13;2.33;;;21.30;99.90;;;;;;5028476;28;20491;-62
2021/07/28 11:03:01;;;;;;;5.20;2.38;;;21.40;99.90;;;;;;5034285;28;20071;-60
2021/07/28 11:05:28;;;;;;;2.88;2.13;;;21.50;99.90;;;;;;5031103;28;20497;-61
2021/07/28 11:08:18;;;;;;;6.88;2.83;;;21.30;99.90;;;;;;5036106;28;20049;-60
2021/07/28 11:10:55;;;;;;;12.95;2.58;;;21.30;99.90;;;;;;5026150;28;20081;-60
2021/07/28 11:13:23;;;;;;;6.60;2.25;;;21.40;99.90;;;;;;5029417;28;20037;-60
2021/07/28 11:15:59;;;;;;;7.00;2.20;;;21.30;99.90;;;;;;5030893;28;20033;-61
2021/07/28 11:18:40;;;;;;;6.97;2.60;;;21.20;99.90;;;;;;5033190;28;20033;-62
2021/07/28 11:21:11;;;;;;;8.02;2.92;;;20.80;99.90;;;;;;5032001;28;20037;-60
2021/07/28 11:23:36;;;;;;;10.15;2.55;;;20.50;99.90;;;;;;5033575;28;20488;-61
2021/07/28 11:26:11;;;;;;;3.15;1.92;;;20.40;99.90;;;;;;5033504;28;20116;-61
2021/07/28 11:28:36;;;;;;;4.53;2.10;;;20.60;99.90;;;;;;5040174;28;20045;-60
2021/07/28 11:31:06;;;;;;;9.43;2.10;;;20.60;99.90;;;;;;5031408;28;20040;-59
2021/07/28 11:33:33;;;;;;;2.90;2.15;;;20.90;99.90;;;;;;5024623;28;20146;-63
2021/07/28 11:36:00;;;;;;;3.55;2.08;;;20.90;99.90;;;;;;5036109;28;20026;-61
2021/07/28 11:38:28;;;;;;;5.90;2.38;;;21.10;99.90;;;;;;5038913;28;20076;-63
2021/07/28 11:40:57;;;;;;;6.15;2.05;;;21.00;99.90;;;;;;5033324;28;20040;-61
2021/07/28 11:43:23;;;;;;;5.63;2.35;;;20.90;99.90;;;;;;5034968;28;20032;-62
2021/07/28 11:45:49;;;;;;;7.35;2.10;;;20.70;99.90;;;;;;5032947;28;20391;-62
2021/07/28 11:48:34;;;;;;;7.75;2.17;;;20.60;99.90;;;;;;5032193;28;20484;-62
2021/07/28 11:51:08;;;;;;;12.43;2.40;;;20.60;99.90;;;;;;5034492;28;20110;-60
2021/07/28 11:53:35;;;;;;;3.72;1.92;;;20.60;99.90;;;;;;5030112;28;20057;-61
2021/07/28 11:56:09;;;;;;;4.65;1.92;;;20.60;99.90;;;;;;5037204;28;20106;-62
2021/07/28 11:58:48;;;;;;;7.63;2.33;;;20.70;99.90;;;;;;5032682;28;20105;-61
2021/07/28 12:01:24;;;;;;;8.02;2.40;;;20.80;99.90;;;;;;5034248;28;20399;-61
2021/07/28 12:03:57;;;;;;;4.35;2.70;;;20.70;99.90;;;;;;5032480;28;20082;-61
2021/07/28 12:06:31;;;;;;;4.38;2.78;;;20.80;99.90;;;;;;5030093;28;20435;-64
2021/07/28 12:09:15;;;;;;;7.38;3.33;;;20.80;99.90;;;;;;5019210;28;20021;-62
2021/07/28 12:11:46;;;;;;;5.70;2.80;;;21.10;99.90;;;;;;5032446;28;20192;-60
2021/07/28 12:14:23;;;;;;;12.00;2.47;;;21.10;99.90;;;;;;5018372;28;20116;-62
2021/07/28 12:16:48;;;;;;;2.95;2.30;;;21.30;99.90;;;;;;5026466;28;20057;-61
2021/07/28 12:19:21;;;;;;;4.50;2.22;;;21.40;99.90;;;;;;5026018;28;20173;-61
2021/07/28 12:22:04;;;;;;;7.75;2.22;;;21.50;99.90;;;;;;5031310;28;20136;-62
2021/07/28 12:24:50;;;;;;;3.15;1.60;;;21.60;99.90;;;;;;5035140;28;20037;-62
2021/07/28 12:27:28;;;;;;;6.25;1.90;;;21.90;99.90;;;;;;5034795;28;20057;-61
2021/07/28 12:30:01;;;;;;;2.33;1.63;;;22.00;99.90;;;;;;5029198;28;20033;-60
2021/07/28 12:32:37;;;;;;;5.93;2.33;;;22.20;99.90;;;;;;5035760;28;20244;-61
2021/07/28 12:35:15;;;;;;;6.90;1.85;;;22.30;99.90;;;;;;5030722;28;20141;-62
2021/07/28 12:37:41;;;;;;;5.72;1.90;;;22.30;99.90;;;;;;5023301;28;20083;-60
2021/07/28 12:40:08;;;;;;;4.60;1.95;;;22.40;99.90;;;;;;5031057;28;20032;-60
2021/07/28 12:42:34;;;;;;;4.45;2.03;;;22.50;99.90;;;;;;5030919;28;20037;-63
2021/07/28 12:45:00;;;;;;;11.25;2.00;;;22.30;99.90;;;;;;5031989;28;20029;-63
2021/07/28 12:47:26;;;;;;;2.78;1.90;;;22.40;99.90;;;;;;5020643;28;20434;-62